createdAt,value
2022-10-04T00:00:34.716Z,1008.85
2022-10-04T00:01:34.977Z,1008.83
2022-10-04T00:02:34.942Z,1008.82
2022-10-04T00:03:34.991Z,1008.84
2022-10-04T00:04:35.071Z,1008.82
2022-10-04T00:05:35.146Z,1008.76
2022-10-04T00:06:35.509Z,1008.74
2022-10-04T00:07:35.340Z,1008.71
2022-10-04T00:08:35.370Z,1008.69
2022-10-04T00:09:35.475Z,1008.68
2022-10-04T00:10:35.529Z,1008.65
2022-10-04T00:11:35.621Z,1008.65
2022-10-04T00:12:35.695Z,1008.62
2022-10-04T00:13:35.774Z,1008.63
2022-10-04T00:14:35.844Z,1008.62
2022-10-04T00:15:35.943Z,1008.65
2022-10-04T00:16:36.073Z,1008.62
2022-10-04T00:17:36.106Z,1008.65
2022-10-04T00:18:36.177Z,1008.70
2022-10-04T00:19:36.255Z,1008.65
2022-10-04T00:20:36.327Z,1008.63
2022-10-04T00:21:36.455Z,1008.63
2022-10-04T00:22:36.490Z,1008.64
2022-10-04T00:23:36.591Z,1008.65
2022-10-04T00:24:36.661Z,1008.68
2022-10-04T00:25:36.760Z,1008.68
2022-10-04T00:26:36.857Z,1008.67
2022-10-04T00:27:36.925Z,1008.68
2022-10-04T00:28:37.025Z,1008.68
2022-10-04T00:29:37.091Z,1008.71
2022-10-04T00:30:37.181Z,1008.70
2022-10-04T00:31:37.314Z,1008.71
2022-10-04T00:32:37.321Z,1008.68
2022-10-04T00:33:37.381Z,1008.66
2022-10-04T00:34:37.488Z,1008.61
2022-10-04T00:35:37.569Z,1008.59
2022-10-04T00:36:37.735Z,1008.58
2022-10-04T00:37:37.750Z,1008.54
2022-10-04T00:38:37.848Z,1008.53
2022-10-04T00:39:37.901Z,1008.54
2022-10-04T00:40:38.000Z,1008.57
2022-10-04T00:41:38.089Z,1008.57
2022-10-04T00:42:38.146Z,1008.57
2022-10-04T00:43:38.205Z,1008.59
2022-10-04T00:44:38.301Z,1008.60
2022-10-04T00:45:38.360Z,1008.63
2022-10-04T00:46:38.525Z,1008.63
2022-10-04T00:47:38.497Z,1008.54
2022-10-04T00:48:38.590Z,1008.55
2022-10-04T00:49:38.646Z,1008.50
2022-10-04T00:50:38.752Z,1008.49
2022-10-04T00:51:39.029Z,1008.49
2022-10-04T00:52:38.902Z,1008.42
2022-10-04T00:53:38.973Z,1008.46
2022-10-04T00:54:39.052Z,1008.42
2022-10-04T00:55:39.122Z,1008.41
2022-10-04T00:56:39.247Z,1008.42
2022-10-04T00:57:39.299Z,1008.45
2022-10-04T00:58:39.405Z,1008.40
2022-10-04T00:59:39.490Z,1008.42
2022-10-04T01:00:39.635Z,1008.36
2022-10-04T01:01:39.885Z,1008.33
2022-10-04T01:02:39.769Z,1008.32
2022-10-04T01:03:39.791Z,1008.32
2022-10-04T01:04:39.864Z,1008.34
2022-10-04T01:05:39.941Z,1008.29
2022-10-04T01:06:40.060Z,1008.30
2022-10-04T01:07:40.127Z,1008.31
2022-10-04T01:08:40.224Z,1008.27
2022-10-04T01:09:40.314Z,1008.28
2022-10-04T01:10:40.389Z,1008.25
2022-10-04T01:11:40.736Z,1008.27
2022-10-04T01:12:40.546Z,1008.26
2022-10-04T01:13:40.617Z,1008.25
2022-10-04T01:14:40.691Z,1008.28
2022-10-04T01:15:40.811Z,1008.26
2022-10-04T01:16:40.865Z,1008.25
2022-10-04T01:17:40.911Z,1008.26
2022-10-04T01:18:41.016Z,1008.23
2022-10-04T01:19:41.096Z,1008.23
2022-10-04T01:20:41.184Z,1008.24
2022-10-04T01:21:41.535Z,1008.25
2022-10-04T01:22:41.354Z,1008.24
2022-10-04T01:23:41.418Z,1008.21
2022-10-04T01:24:41.497Z,1008.23
2022-10-04T01:25:41.585Z,1008.23
2022-10-04T01:26:41.690Z,1008.23
2022-10-04T01:27:41.740Z,1008.26
2022-10-04T01:28:41.830Z,1008.28
2022-10-04T01:29:41.884Z,1008.32
2022-10-04T01:30:41.981Z,1008.28
2022-10-04T01:31:42.415Z,1008.31
2022-10-04T01:32:42.122Z,1008.29
2022-10-04T01:33:42.205Z,1008.27
2022-10-04T01:34:42.290Z,1008.27
2022-10-04T01:35:42.358Z,1008.24
2022-10-04T01:36:42.501Z,1008.27
2022-10-04T01:37:42.513Z,1008.19
2022-10-04T01:38:42.600Z,1008.19
2022-10-04T01:39:42.648Z,1008.18
2022-10-04T01:40:42.756Z,1008.15
2022-10-04T01:41:43.055Z,1008.11
2022-10-04T01:42:42.889Z,1008.12
2022-10-04T01:43:42.943Z,1008.09
2022-10-04T01:44:43.040Z,1008.08
2022-10-04T01:45:43.106Z,1008.12
2022-10-04T01:46:43.268Z,1008.09
2022-10-04T01:47:43.273Z,1008.10
2022-10-04T01:48:43.370Z,1008.08
2022-10-04T01:49:43.433Z,1008.06
2022-10-04T01:50:43.500Z,1008.04
2022-10-04T01:51:43.794Z,1008.02
2022-10-04T01:52:43.679Z,1008.01
2022-10-04T01:53:43.749Z,1007.95
2022-10-04T01:54:43.824Z,1007.92
2022-10-04T01:55:43.912Z,1007.92
2022-10-04T01:56:43.993Z,1007.86
2022-10-04T01:57:44.085Z,1007.91
2022-10-04T01:58:44.159Z,1007.87
2022-10-04T01:59:44.253Z,1007.90
2022-10-04T02:00:44.392Z,1007.96
2022-10-04T02:01:44.846Z,1007.94
2022-10-04T02:02:44.493Z,1007.96
2022-10-04T02:03:44.682Z,1007.97
2022-10-04T02:04:44.686Z,1007.96
2022-10-04T02:05:44.727Z,1007.96
2022-10-04T02:06:44.803Z,1007.95
2022-10-04T02:07:44.882Z,1007.97
2022-10-04T02:08:44.947Z,1007.96
2022-10-04T02:09:45.030Z,1007.99
2022-10-04T02:10:45.100Z,1008.00
2022-10-04T02:11:45.209Z,1007.98
2022-10-04T02:12:45.268Z,1007.99
2022-10-04T02:13:45.362Z,1008.04
2022-10-04T02:14:45.428Z,1008.06
2022-10-04T02:15:45.545Z,1008.09
2022-10-04T02:16:45.612Z,1008.10
2022-10-04T02:17:45.701Z,1008.11
2022-10-04T02:18:45.761Z,1008.09
2022-10-04T02:19:45.847Z,1008.09
2022-10-04T02:20:45.906Z,1008.09
2022-10-04T02:21:46.017Z,1008.07
2022-10-04T02:22:46.069Z,1008.07
2022-10-04T02:23:46.181Z,1008.04
2022-10-04T02:24:46.270Z,1008.01
2022-10-04T02:25:46.375Z,1008.01
2022-10-04T02:26:46.484Z,1008.04
2022-10-04T02:27:46.554Z,1008.00
2022-10-04T02:28:46.635Z,1007.97
2022-10-04T02:29:46.712Z,1008.04
2022-10-04T02:30:46.780Z,1008.02
2022-10-04T02:31:46.978Z,1008.01
2022-10-04T02:32:46.975Z,1007.98
2022-10-04T02:33:47.056Z,1007.97
2022-10-04T02:34:47.138Z,1007.92
2022-10-04T02:35:47.217Z,1007.96
2022-10-04T02:36:47.319Z,1007.90
2022-10-04T02:37:47.399Z,1007.91
2022-10-04T02:38:47.466Z,1007.90
2022-10-04T02:39:47.564Z,1007.91
2022-10-04T02:40:47.648Z,1007.87
2022-10-04T02:41:47.765Z,1007.91
2022-10-04T02:42:47.803Z,1007.88
2022-10-04T02:43:47.877Z,1007.90
2022-10-04T02:44:47.956Z,1007.91
2022-10-04T02:45:48.067Z,1007.93
2022-10-04T02:46:48.200Z,1007.90
2022-10-04T02:47:48.234Z,1007.92
2022-10-04T02:48:48.325Z,1007.91
2022-10-04T02:49:48.411Z,1007.90
2022-10-04T02:50:48.499Z,1007.90
2022-10-04T02:51:48.628Z,1007.89
2022-10-04T02:52:48.680Z,1007.88
2022-10-04T02:53:48.781Z,1007.89
2022-10-04T02:54:48.869Z,1007.91
2022-10-04T02:55:48.951Z,1007.90
2022-10-04T02:56:49.064Z,1007.86
2022-10-04T02:57:49.114Z,1007.86
2022-10-04T02:58:49.168Z,1007.82
2022-10-04T02:59:49.246Z,1007.80
2022-10-04T03:00:49.435Z,1007.80
2022-10-04T03:01:49.594Z,1007.76
2022-10-04T03:02:49.540Z,1007.73
2022-10-04T03:03:49.586Z,1007.73
2022-10-04T03:04:49.673Z,1007.75
2022-10-04T03:05:49.751Z,1007.73
2022-10-04T03:06:49.847Z,1007.72
2022-10-04T03:07:49.909Z,1007.73
2022-10-04T03:08:49.990Z,1007.71
2022-10-04T03:09:50.087Z,1007.73
2022-10-04T03:10:50.167Z,1007.73
2022-10-04T03:11:50.268Z,1007.72
2022-10-04T03:12:50.330Z,1007.71
2022-10-04T03:13:50.406Z,1007.68
2022-10-04T03:14:50.484Z,1007.68
2022-10-04T03:15:50.690Z,1007.65
2022-10-04T03:16:50.637Z,1007.59
2022-10-04T03:17:50.701Z,1007.61
2022-10-04T03:18:50.791Z,1007.60
2022-10-04T03:19:50.864Z,1007.54
2022-10-04T03:20:50.947Z,1007.56
2022-10-04T03:21:51.046Z,1007.55
2022-10-04T03:22:51.097Z,1007.58
2022-10-04T03:23:51.179Z,1007.58
2022-10-04T03:24:51.235Z,1007.55
2022-10-04T03:25:51.335Z,1007.53
2022-10-04T03:26:51.419Z,1007.54
2022-10-04T03:27:51.538Z,1007.50
2022-10-04T03:28:51.547Z,1007.48
2022-10-04T03:29:55.619Z,1007.46
2022-10-04T03:30:51.701Z,1007.46
2022-10-04T03:31:51.957Z,1007.43
2022-10-04T03:32:51.856Z,1007.43
2022-10-04T03:33:51.952Z,1007.40
2022-10-04T03:34:52.027Z,1007.42
2022-10-04T03:35:52.129Z,1007.38
2022-10-04T03:36:52.215Z,1007.38
2022-10-04T03:37:52.276Z,1007.41
2022-10-04T03:38:52.349Z,1007.40
2022-10-04T03:39:52.439Z,1007.36
2022-10-04T03:40:52.516Z,1007.36
2022-10-04T03:41:52.613Z,1007.32
2022-10-04T03:42:52.685Z,1007.29
2022-10-04T03:43:52.771Z,1007.27
2022-10-04T03:44:52.836Z,1007.26
2022-10-04T03:45:52.995Z,1007.26
2022-10-04T03:46:53.037Z,1007.25
2022-10-04T03:47:53.093Z,1007.21
2022-10-04T03:48:53.155Z,1007.21
2022-10-04T03:49:53.253Z,1007.18
2022-10-04T03:50:53.327Z,1007.17
2022-10-04T03:51:53.459Z,1007.12
2022-10-04T03:52:53.493Z,1007.12
2022-10-04T03:53:53.586Z,1007.09
2022-10-04T03:54:53.661Z,1007.11
2022-10-04T03:55:53.742Z,1007.10
2022-10-04T03:56:53.834Z,1007.07
2022-10-04T03:57:53.916Z,1007.09
2022-10-04T03:58:53.995Z,1007.12
2022-10-04T03:59:54.057Z,1007.12
2022-10-04T04:00:54.183Z,1007.12
2022-10-04T04:01:54.312Z,1007.11
2022-10-04T04:02:54.309Z,1007.12
2022-10-04T04:03:54.416Z,1007.08
2022-10-04T04:04:54.490Z,1007.09
2022-10-04T04:05:54.591Z,1007.13
2022-10-04T04:06:54.695Z,1007.14
2022-10-04T04:07:54.757Z,1007.14
2022-10-04T04:08:54.827Z,1007.12
2022-10-04T04:09:54.926Z,1007.12
2022-10-04T04:10:54.994Z,1007.13
2022-10-04T04:11:55.414Z,1007.07
2022-10-04T04:12:55.158Z,1007.07
2022-10-04T04:13:55.255Z,1007.13
2022-10-04T04:14:55.331Z,1007.13
2022-10-04T04:15:55.483Z,1007.13
2022-10-04T04:16:55.515Z,1007.20
2022-10-04T04:17:55.583Z,1007.17
2022-10-04T04:18:55.651Z,1007.12
2022-10-04T04:19:55.754Z,1007.19
2022-10-04T04:20:55.841Z,1007.16
2022-10-04T04:21:56.030Z,1007.17
2022-10-04T04:22:55.989Z,1007.20
2022-10-04T04:23:56.066Z,1007.24
2022-10-04T04:24:56.144Z,1007.25
2022-10-04T04:25:56.254Z,1007.24
2022-10-04T04:26:56.348Z,1007.29
2022-10-04T04:27:56.444Z,1007.28
2022-10-04T04:28:56.487Z,1007.28
2022-10-04T04:29:56.562Z,1007.23
2022-10-04T04:30:56.649Z,1007.21
2022-10-04T04:31:56.792Z,1007.19
2022-10-04T04:32:56.827Z,1007.18
2022-10-04T04:33:56.896Z,1007.19
2022-10-04T04:34:56.984Z,1007.21
2022-10-04T04:35:57.057Z,1007.19
2022-10-04T04:36:57.156Z,1007.22
2022-10-04T04:37:57.226Z,1007.21
2022-10-04T04:38:57.310Z,1007.20
2022-10-04T04:39:57.382Z,1007.21
2022-10-04T04:40:57.475Z,1007.23
2022-10-04T04:41:57.594Z,1007.23
2022-10-04T04:42:57.641Z,1007.20
2022-10-04T04:43:57.710Z,1007.24
2022-10-04T04:44:57.789Z,1007.20
2022-10-04T04:46:22.217Z,1007.19
2022-10-04T04:46:58.266Z,1007.18
2022-10-04T04:47:58.096Z,1007.18
2022-10-04T04:48:58.174Z,1007.10
2022-10-04T04:49:58.244Z,1007.11
2022-10-04T04:50:58.303Z,1007.00
2022-10-04T04:51:58.394Z,1007.07
2022-10-04T04:52:58.441Z,1007.07
2022-10-04T04:53:58.519Z,1007.07
2022-10-04T04:54:58.595Z,1007.13
2022-10-04T04:56:10.461Z,1007.13
2022-10-04T04:56:58.791Z,1007.13
2022-10-04T04:57:58.869Z,1007.16
2022-10-04T04:58:58.926Z,1007.11
2022-10-04T04:59:59.027Z,1007.12
2022-10-04T05:00:59.171Z,1007.09
2022-10-04T05:01:59.357Z,1007.09
2022-10-04T05:02:59.283Z,1007.10
2022-10-04T05:03:59.358Z,1007.10
2022-10-04T05:04:59.413Z,1007.04
2022-10-04T05:05:59.502Z,1007.06
2022-10-04T05:06:59.613Z,1007.08
2022-10-04T05:07:59.698Z,1007.11
2022-10-04T05:08:59.771Z,1007.07
2022-10-04T05:09:59.854Z,1007.10
2022-10-04T05:10:59.948Z,1007.09
2022-10-04T05:12:00.085Z,1007.02
2022-10-04T05:13:00.105Z,1006.98
2022-10-04T05:14:00.215Z,1006.96
2022-10-04T05:15:00.303Z,1006.95
2022-10-04T05:16:00.427Z,1006.94
2022-10-04T05:17:00.480Z,1006.95
2022-10-04T05:18:00.554Z,1006.97
2022-10-04T05:19:00.638Z,1006.91
2022-10-04T05:20:00.745Z,1006.96
2022-10-04T05:21:00.797Z,1007.00
2022-10-04T05:22:00.922Z,1007.03
2022-10-04T05:23:00.962Z,1007.01
2022-10-04T05:24:01.064Z,1007.01
2022-10-04T05:25:01.148Z,1007.02
2022-10-04T05:26:01.227Z,1006.98
2022-10-04T05:27:01.323Z,1006.92
2022-10-04T05:28:01.477Z,1006.94
2022-10-04T05:29:01.482Z,1006.93
2022-10-04T05:30:01.582Z,1006.95
2022-10-04T05:31:01.670Z,1006.88
2022-10-04T05:32:01.953Z,1006.94
2022-10-04T05:33:01.831Z,1006.94
2022-10-04T05:34:01.891Z,1006.94
2022-10-04T05:35:01.960Z,1006.93
2022-10-04T05:36:02.069Z,1006.92
2022-10-04T05:37:02.158Z,1006.97
2022-10-04T05:38:02.210Z,1006.92
2022-10-04T05:39:02.276Z,1006.96
2022-10-04T05:40:02.378Z,1006.97
2022-10-04T05:41:02.444Z,1006.96
2022-10-04T05:42:02.586Z,1006.94
2022-10-04T05:43:02.642Z,1006.90
2022-10-04T05:44:02.750Z,1006.91
2022-10-04T05:45:02.809Z,1006.90
2022-10-04T05:46:02.983Z,1006.90
2022-10-04T05:47:02.979Z,1006.89
2022-10-04T05:48:03.038Z,1006.87
2022-10-04T05:49:03.130Z,1006.90
2022-10-04T05:50:03.211Z,1006.89
2022-10-04T05:51:03.270Z,1006.89
2022-10-04T05:52:03.379Z,1006.88
2022-10-04T05:53:03.437Z,1006.85
2022-10-04T05:54:03.545Z,1006.84
2022-10-04T05:55:03.607Z,1006.89
2022-10-04T05:56:03.717Z,1006.89
2022-10-04T05:57:03.808Z,1006.85
2022-10-04T05:58:03.881Z,1006.82
2022-10-04T05:59:03.931Z,1006.81
2022-10-04T06:00:04.752Z,1006.76
2022-10-04T06:01:04.166Z,1006.78
2022-10-04T06:02:04.250Z,1006.79
2022-10-04T06:03:04.269Z,1006.81
2022-10-04T06:04:04.376Z,1006.84
2022-10-04T06:05:04.423Z,1006.86
2022-10-04T06:06:04.512Z,1006.84
2022-10-04T06:07:04.629Z,1006.82
2022-10-04T06:08:04.678Z,1006.81
2022-10-04T06:09:04.767Z,1006.78
2022-10-04T06:10:04.836Z,1006.79
2022-10-04T06:11:04.917Z,1006.77
2022-10-04T06:12:05.321Z,1006.73
2022-10-04T06:13:05.119Z,1006.74
2022-10-04T06:14:05.203Z,1006.75
2022-10-04T06:15:05.300Z,1006.72
2022-10-04T06:16:05.386Z,1006.71
2022-10-04T06:17:05.659Z,1006.71
2022-10-04T06:18:05.521Z,1006.72
2022-10-04T06:19:05.623Z,1006.70
2022-10-04T06:20:05.709Z,1006.72
2022-10-04T06:21:05.789Z,1006.77
2022-10-04T06:22:05.978Z,1006.72
2022-10-04T06:23:05.982Z,1006.79
2022-10-04T06:24:06.033Z,1006.74
2022-10-04T06:25:06.150Z,1006.72
2022-10-04T06:26:06.219Z,1006.76
2022-10-04T06:27:06.410Z,1006.78
2022-10-04T06:28:06.433Z,1006.77
2022-10-04T06:29:06.477Z,1006.74
2022-10-04T06:30:06.560Z,1006.75
2022-10-04T06:31:06.750Z,1006.76
2022-10-04T06:32:06.869Z,1006.77
2022-10-04T06:33:06.819Z,1006.79
2022-10-04T06:34:06.913Z,1006.80
2022-10-04T06:35:06.988Z,1006.74
2022-10-04T06:36:07.075Z,1006.76
2022-10-04T06:37:07.263Z,1006.69
2022-10-04T06:38:07.263Z,1006.73
2022-10-04T06:39:07.370Z,1006.73
2022-10-04T06:40:07.459Z,1006.72
2022-10-04T06:41:07.555Z,1006.75
2022-10-04T06:42:07.665Z,1006.73
2022-10-04T06:43:07.744Z,1006.69
2022-10-04T06:44:07.822Z,1006.70
2022-10-04T06:45:07.892Z,1006.66
2022-10-04T06:46:08.109Z,1006.66
2022-10-04T06:47:08.100Z,1006.69
2022-10-04T06:48:08.131Z,1006.64
2022-10-04T06:49:08.229Z,1006.68
2022-10-04T06:50:08.305Z,1006.68
2022-10-04T06:51:08.396Z,1006.65
2022-10-04T06:52:08.520Z,1006.67
2022-10-04T06:53:08.578Z,1006.69
2022-10-04T06:54:08.653Z,1006.67
2022-10-04T06:55:08.753Z,1006.73
2022-10-04T06:56:08.816Z,1006.66
2022-10-04T06:57:08.952Z,1006.66
2022-10-04T06:58:08.974Z,1006.66
2022-10-04T06:59:09.064Z,1006.63
2022-10-04T07:00:09.119Z,1006.66
2022-10-04T07:01:09.256Z,1006.70
2022-10-04T07:02:09.318Z,1006.68
2022-10-04T07:03:09.344Z,1006.67
2022-10-04T07:04:09.421Z,1006.68
2022-10-04T07:05:09.909Z,1006.76
2022-10-04T07:06:09.597Z,1006.76
2022-10-04T07:07:09.707Z,1006.74
2022-10-04T07:08:09.764Z,1006.69
2022-10-04T07:09:09.851Z,1006.67
2022-10-04T07:10:09.942Z,1006.73
2022-10-04T07:11:12.337Z,1006.73
2022-10-04T07:12:10.140Z,1006.75
2022-10-04T07:13:10.194Z,1006.72
2022-10-04T07:14:10.246Z,1006.68
2022-10-04T07:15:10.336Z,1006.77
2022-10-04T07:16:10.430Z,1006.81
2022-10-04T07:17:10.522Z,1006.70
2022-10-04T07:18:10.569Z,1006.64
2022-10-04T07:19:10.659Z,1006.72
2022-10-04T07:20:10.746Z,1006.70
2022-10-04T07:21:10.831Z,1006.62
2022-10-04T07:22:10.932Z,1006.76
2022-10-04T07:23:10.996Z,1006.75
2022-10-04T07:24:11.047Z,1006.79
2022-10-04T07:25:11.152Z,1006.78
2022-10-04T07:26:11.209Z,1006.72
2022-10-04T07:27:11.381Z,1006.73
2022-10-04T07:28:11.465Z,1006.68
2022-10-04T07:29:11.447Z,1006.65
2022-10-04T07:30:11.499Z,1006.63
2022-10-04T07:31:11.750Z,1006.63
2022-10-04T07:32:11.801Z,1006.72
2022-10-04T07:33:11.754Z,1006.69
2022-10-04T07:34:11.843Z,1006.73
2022-10-04T07:35:11.924Z,1006.70
2022-10-04T07:36:12.007Z,1006.70
2022-10-04T07:37:12.139Z,1006.68
2022-10-04T07:38:12.178Z,1006.75
2022-10-04T07:39:12.270Z,1006.76
2022-10-04T07:40:12.355Z,1006.81
2022-10-04T07:41:12.455Z,1006.81
2022-10-04T07:42:12.613Z,1006.81
2022-10-04T07:43:12.642Z,1006.86
2022-10-04T07:44:12.725Z,1006.87
2022-10-04T07:45:12.816Z,1006.89
2022-10-04T07:46:12.969Z,1006.87
2022-10-04T07:47:13.000Z,1006.88
2022-10-04T07:48:13.068Z,1006.87
2022-10-04T07:49:13.173Z,1006.74
2022-10-04T07:50:13.229Z,1006.79
2022-10-04T07:51:13.307Z,1006.83
2022-10-04T07:52:13.402Z,1006.90
2022-10-04T07:53:13.461Z,1006.82
2022-10-04T07:54:13.535Z,1006.81
2022-10-04T07:55:13.627Z,1006.86
2022-10-04T07:56:13.702Z,1006.90
2022-10-04T07:57:13.814Z,1006.93
2022-10-04T07:58:13.871Z,1006.88
2022-10-04T07:59:13.959Z,1006.85
2022-10-04T08:00:14.047Z,1006.87
2022-10-04T08:01:14.118Z,1006.82
2022-10-04T08:02:14.509Z,1006.83
2022-10-04T08:03:14.318Z,1006.81
2022-10-04T08:04:14.355Z,1006.79
2022-10-04T08:05:14.442Z,1006.82
2022-10-04T08:06:14.501Z,1006.88
2022-10-04T08:07:14.627Z,1006.80
2022-10-04T08:08:14.687Z,1006.77
2022-10-04T08:09:14.782Z,1006.77
2022-10-04T08:10:14.846Z,1006.76
2022-10-04T08:11:14.942Z,1006.84
2022-10-04T08:12:15.032Z,1006.87
2022-10-04T08:13:15.092Z,1006.80
2022-10-04T08:14:15.162Z,1006.78
2022-10-04T08:15:15.262Z,1006.84
2022-10-04T08:16:15.417Z,1006.86
2022-10-04T08:17:15.956Z,1006.87
2022-10-04T08:18:15.506Z,1006.86
2022-10-04T08:19:15.576Z,1006.85
2022-10-04T08:20:15.652Z,1006.88
2022-10-04T08:21:15.740Z,1006.84
2022-10-04T08:22:15.873Z,1006.85
2022-10-04T08:23:15.900Z,1006.88
2022-10-04T08:24:15.987Z,1006.84
2022-10-04T08:25:16.062Z,1006.85
2022-10-04T08:26:16.151Z,1006.82
2022-10-04T08:27:16.241Z,1006.86
2022-10-04T08:28:16.352Z,1006.89
2022-10-04T08:29:16.383Z,1006.88
2022-10-04T08:30:16.469Z,1006.89
2022-10-04T08:31:16.627Z,1006.89
2022-10-04T08:32:16.788Z,1006.93
2022-10-04T08:33:16.752Z,1006.90
2022-10-04T08:34:16.835Z,1006.87
2022-10-04T08:35:16.937Z,1006.91
2022-10-04T08:36:17.020Z,1006.83
2022-10-04T08:37:17.087Z,1006.88
2022-10-04T08:38:17.133Z,1006.85
2022-10-04T08:39:17.211Z,1006.84
2022-10-04T08:40:17.258Z,1006.80
2022-10-04T08:41:17.343Z,1006.83
2022-10-04T08:42:17.532Z,1006.84
2022-10-04T08:43:17.526Z,1006.86
2022-10-04T08:44:17.614Z,1006.84
2022-10-04T08:45:17.703Z,1006.81
2022-10-04T08:46:17.852Z,1006.88
2022-10-04T08:47:21.859Z,1006.80
2022-10-04T08:48:17.945Z,1006.85
2022-10-04T08:49:18.018Z,1006.83
2022-10-04T08:50:18.197Z,1006.83
2022-10-04T08:51:18.196Z,1006.86
2022-10-04T08:52:18.296Z,1006.81
2022-10-04T08:53:18.384Z,1006.80
2022-10-04T08:54:18.431Z,1006.77
2022-10-04T08:55:18.511Z,1006.81
2022-10-04T08:56:18.565Z,1006.76
2022-10-04T08:57:18.654Z,1006.79
2022-10-04T08:58:18.700Z,1006.75
2022-10-04T08:59:18.775Z,1006.76
2022-10-04T09:00:18.850Z,1006.76
2022-10-04T09:01:19.033Z,1006.80
2022-10-04T09:02:19.179Z,1006.76
2022-10-04T09:03:24.095Z,1006.79
2022-10-04T09:04:19.142Z,1006.85
2022-10-04T09:05:19.216Z,1006.84
2022-10-04T09:06:19.286Z,1006.84
2022-10-04T09:07:19.393Z,1006.87
2022-10-04T09:08:19.435Z,1006.88
2022-10-04T09:09:19.509Z,1006.83
2022-10-04T09:10:24.205Z,1006.76
2022-10-04T09:11:19.707Z,1006.74
2022-10-04T09:12:19.873Z,1006.72
2022-10-04T09:13:19.828Z,1006.71
2022-10-04T09:14:19.929Z,1006.67
2022-10-04T09:15:19.993Z,1006.62
2022-10-04T09:16:20.173Z,1006.59
2022-10-04T09:17:22.669Z,1006.58
2022-10-04T09:18:20.207Z,1006.61
2022-10-04T09:19:20.281Z,1006.62
2022-10-04T09:20:37.816Z,1006.67
2022-10-04T09:21:20.485Z,1006.66
2022-10-04T09:22:20.579Z,1006.66
2022-10-04T09:23:20.658Z,1006.60
2022-10-04T09:24:20.727Z,1006.65
2022-10-04T09:25:20.805Z,1006.62
2022-10-04T09:26:20.858Z,1006.71
2022-10-04T09:27:50.082Z,1006.75
2022-10-04T09:28:21.057Z,1006.71
2022-10-04T09:29:21.130Z,1006.77
2022-10-04T09:30:21.197Z,1006.75
2022-10-04T09:31:21.402Z,1006.75
2022-10-04T09:32:21.372Z,1006.70
2022-10-04T09:33:21.425Z,1006.72
2022-10-04T09:34:21.498Z,1006.66
2022-10-04T09:35:21.573Z,1006.63
2022-10-04T09:36:21.657Z,1006.65
2022-10-04T09:37:21.753Z,1006.62
2022-10-04T09:38:21.807Z,1006.62
2022-10-04T09:39:30.700Z,1006.56
2022-10-04T09:40:21.966Z,1006.63
2022-10-04T09:41:22.064Z,1006.57
2022-10-04T09:42:22.127Z,1006.54
2022-10-04T09:43:22.190Z,1006.51
2022-10-04T09:44:22.272Z,1006.51
2022-10-04T09:45:22.341Z,1006.49
2022-10-04T09:46:22.514Z,1006.48
2022-10-04T09:47:22.515Z,1006.55
2022-10-04T09:48:22.558Z,1006.57
2022-10-04T09:49:22.631Z,1006.53
2022-10-04T09:50:22.726Z,1006.56
2022-10-04T09:51:22.817Z,1006.50
2022-10-04T09:52:22.938Z,1006.53
2022-10-04T09:53:23.008Z,1006.54
2022-10-04T09:54:23.097Z,1006.52
2022-10-04T09:55:23.171Z,1006.53
2022-10-04T09:56:23.260Z,1006.47
2022-10-04T09:57:23.348Z,1006.48
2022-10-04T09:58:23.391Z,1006.45
2022-10-04T09:59:23.466Z,1006.45
2022-10-04T10:00:23.592Z,1006.47
2022-10-04T10:01:23.721Z,1006.47
2022-10-04T10:02:23.806Z,1006.48
2022-10-04T10:03:23.833Z,1006.42
2022-10-04T10:04:23.886Z,1006.45
2022-10-04T10:05:23.976Z,1006.36
2022-10-04T10:06:24.055Z,1006.46
2022-10-04T10:07:24.187Z,1006.45
2022-10-04T10:08:28.173Z,1006.45
2022-10-04T10:09:24.307Z,1006.41
2022-10-04T10:10:24.391Z,1006.41
2022-10-04T10:11:24.553Z,1006.43
2022-10-04T10:12:24.547Z,1006.38
2022-10-04T10:13:27.705Z,1006.40
2022-10-04T10:14:24.684Z,1006.36
2022-10-04T10:15:24.754Z,1006.35
2022-10-04T10:16:24.940Z,1006.38
2022-10-04T10:17:24.950Z,1006.38
2022-10-04T10:18:24.992Z,1006.39
2022-10-04T10:19:28.348Z,1006.45
2022-10-04T10:20:25.123Z,1006.45
2022-10-04T10:21:25.217Z,1006.45
2022-10-04T10:22:25.355Z,1006.44
2022-10-04T10:23:25.360Z,1006.35
2022-10-04T10:24:25.444Z,1006.35
2022-10-04T10:25:25.519Z,1006.27
2022-10-04T10:26:25.613Z,1006.26
2022-10-04T10:27:25.713Z,1006.32
2022-10-04T10:28:25.822Z,1006.25
2022-10-04T10:29:25.822Z,1006.22
2022-10-04T10:30:25.913Z,1006.24
2022-10-04T10:31:26.046Z,1006.21
2022-10-04T10:32:26.111Z,1006.21
2022-10-04T10:33:26.156Z,1006.23
2022-10-04T10:34:26.235Z,1006.23
2022-10-04T10:35:26.326Z,1006.22
2022-10-04T10:36:26.409Z,1006.28
2022-10-04T10:37:26.471Z,1006.31
2022-10-04T10:38:26.552Z,1006.28
2022-10-04T10:39:26.644Z,1006.26
2022-10-04T10:40:26.747Z,1006.31
2022-10-04T10:41:27.020Z,1006.30
2022-10-04T10:42:26.914Z,1006.28
2022-10-04T10:43:26.964Z,1006.30
2022-10-04T10:44:27.044Z,1006.28
2022-10-04T10:45:27.098Z,1006.30
2022-10-04T10:46:27.285Z,1006.30
2022-10-04T10:47:27.269Z,1006.31
2022-10-04T10:48:27.327Z,1006.31
2022-10-04T10:49:27.428Z,1006.35
2022-10-04T10:50:27.517Z,1006.29
2022-10-04T10:51:27.572Z,1006.30
2022-10-04T10:52:27.663Z,1006.31
2022-10-04T10:53:27.716Z,1006.31
2022-10-04T10:54:27.799Z,1006.26
2022-10-04T10:55:27.869Z,1006.27
2022-10-04T10:56:30.186Z,1006.27
2022-10-04T10:57:28.047Z,1006.26
2022-10-04T10:58:28.087Z,1006.19
2022-10-04T10:59:28.178Z,1006.19
2022-10-04T11:00:28.263Z,1006.18
2022-10-04T11:01:28.437Z,1006.21
2022-10-04T11:02:47.705Z,1006.14
2022-10-04T11:03:31.876Z,1006.13
2022-10-04T11:04:28.535Z,1006.16
2022-10-04T11:05:28.586Z,1006.14
2022-10-04T11:06:28.675Z,1006.11
2022-10-04T11:07:28.798Z,1006.11
2022-10-04T11:08:28.840Z,1006.12
2022-10-04T11:09:28.889Z,1006.14
2022-10-04T11:10:28.969Z,1006.14
2022-10-04T11:11:29.061Z,1006.15
2022-10-04T11:12:29.179Z,1006.13
2022-10-04T11:13:29.223Z,1006.10
2022-10-04T11:14:29.302Z,1006.08
2022-10-04T11:15:29.377Z,1006.03
2022-10-04T11:16:29.517Z,1006.01
2022-10-04T11:17:29.527Z,1006.05
2022-10-04T11:18:29.604Z,1006.03
2022-10-04T11:19:29.654Z,1005.97
2022-10-04T11:20:29.774Z,1005.89
2022-10-04T11:21:29.819Z,1005.93
2022-10-04T11:22:32.693Z,1005.88
2022-10-04T11:23:29.968Z,1005.91
2022-10-04T11:24:30.044Z,1005.85
2022-10-04T11:25:30.113Z,1005.90
2022-10-04T11:26:30.210Z,1005.85
2022-10-04T11:27:30.272Z,1005.83
2022-10-04T11:28:30.425Z,1005.81
2022-10-04T11:29:30.408Z,1005.82
2022-10-04T11:30:30.500Z,1005.84
2022-10-04T11:31:30.596Z,1005.73
2022-10-04T11:32:30.659Z,1005.77
2022-10-04T11:33:30.710Z,1005.76
2022-10-04T11:34:30.801Z,1005.82
2022-10-04T11:35:30.858Z,1005.75
2022-10-04T11:36:30.950Z,1005.81
2022-10-04T11:37:31.032Z,1005.78
2022-10-04T11:38:31.114Z,1005.73
2022-10-04T11:39:31.190Z,1005.75
2022-10-04T11:40:31.250Z,1005.73
2022-10-04T11:41:31.304Z,1005.68
2022-10-04T11:42:31.418Z,1005.66
2022-10-04T11:43:31.465Z,1005.66
2022-10-04T11:44:31.548Z,1005.68
2022-10-04T11:45:31.601Z,1005.62
2022-10-04T11:46:31.753Z,1005.65
2022-10-04T11:47:31.785Z,1005.63
2022-10-04T11:48:31.865Z,1005.59
2022-10-04T11:49:31.959Z,1005.59
2022-10-04T11:50:32.048Z,1005.59
2022-10-04T11:51:32.140Z,1005.56
2022-10-04T11:52:32.259Z,1005.56
2022-10-04T11:53:32.306Z,1005.54
2022-10-04T11:54:32.399Z,1005.53
2022-10-04T11:55:32.477Z,1005.51
2022-10-04T11:56:32.562Z,1005.55
2022-10-04T11:57:32.625Z,1005.51
2022-10-04T11:58:32.684Z,1005.58
2022-10-04T11:59:32.773Z,1005.54
2022-10-04T12:00:32.863Z,1005.55
2022-10-04T12:01:32.942Z,1005.52
2022-10-04T12:02:33.039Z,1005.55
2022-10-04T12:03:33.159Z,1005.55
2022-10-04T12:04:33.237Z,1005.52
2022-10-04T12:05:33.229Z,1005.51
2022-10-04T12:06:33.312Z,1005.50